Terminal Aerodrome Forecast
Issued by NWS

Current Version | Previous Version | Text Only | Print | Product List | Glossary On
Versions: 1 2 3 4 5 6 7 8 9 10 11 12 13 14 15 16 17 18 19
000
FTUS41 KGYX 232300
TAFLEB
TAF
KLEB 232324Z 2400/2424 33014G26KT P6SM BKN035 OVC050
     FM240200 30012KT P6SM BKN040 BKN080
     FM241300 33016G26KT P6SM SCT050 SCT090
     FM241600 33020G32KT P6SM FEW050=

USA.gov is the U.S. government's official web portal to all federal, state and local government web resources and services.